Terminal Aerodrome Forecast
Issued by NWS

Home | Current Version | Previous Version | Text Only | Print | Product List | Glossary On
Versions: 1 2 3 4 5 6 7 8 9 10 11 12 13 14
000
FTUS45 KGGW 281720
TAFOLF
TAF
KOLF 281720Z 2818/2918 33023G34KT P6SM FEW090
     FM290300 35010KT P6SM SKC
     FM290500 34006KT P6SM SKC
     FM291500 33010KT P6SM FEW090=

USA.gov is the U.S. government's official web portal to all federal, state and local government web resources and services.